Overview Statistics Trail Chart Weather Telemetry Raw packets
 

This is the latest recevied weather packets stored in our database for station/object SV9TNF-57. If no packets are shown the sender has not sent any weather packets the latest 10 day(s).

<< 70 71 72 73 74 75 76 >>
Time Temp. Humidity Pressure Rain* Wind** Luminosity Snow
1788162462 29.44° C 47% 996.3 hPa 0 mm 2.24 m/s, 306° - -
1788162162 29.44° C 45% 996.2 hPa 0 mm 4.92 m/s, 314° - -
1788161861 30° C 43% 996.1 hPa 0 mm 6.71 m/s, 84° - -
1788161561 30° C 42% 996.3 hPa 0 mm 2.68 m/s, 280° - -
1788161261 30° C 40% 996.3 hPa 0 mm 5.36 m/s, 301° - -
1788160961 30° C 40% 996.3 hPa 0 mm 2.24 m/s, 291° - -
1788160661 30° C 40% 996.3 hPa 0 mm 3.58 m/s, 304° - -
1788160361 30° C 40% 996.1 hPa 0 mm 2.68 m/s, 282° - -
1788160061 29.44° C 40% 996 hPa 0 mm 4.47 m/s, 3° - -
1788159761 29.44° C 41% 996.2 hPa 0 mm 0.89 m/s, 86° - -
1788159460 30° C 40% 996 hPa 0 mm 2.68 m/s, 70° - -
1788159161 30° C 40% 996.1 hPa 0 mm 0.89 m/s, 85° - -
1788158860 30° C 40% 996.2 hPa 0 mm 0.45 m/s, 356° - -
1788158561 29.44° C 41% 996 hPa 0 mm 0 m/s - -
1788158260 28.89° C 41% 996 hPa 0 mm 4.92 m/s, 321° - -
1788157960 29.44° C 41% 996 hPa 0 mm 6.26 m/s, 17° - -
1788157660 28.89° C 42% 996.1 hPa 0 mm 2.68 m/s, 321° - -
1788157360 28.89° C 42% 996.1 hPa 0 mm 0.89 m/s, 252° - -
1788157060 28.33° C 43% 996 hPa 0 mm 8.05 m/s, 292° - -
1788156760 28.33° C 43% 996 hPa 0 mm 1.34 m/s, 335° - -
1788156460 28.89° C 42% 996.1 hPa 0 mm 0.45 m/s, 3° - -
1788156160 28.89° C 42% 996.2 hPa 0 mm 0 m/s - -
1788155859 28.33° C 43% 996.3 hPa 0 mm 0 m/s - -
1788155559 28.33° C 44% 996.4 hPa 0 mm 0.89 m/s, 290° - -
1788155259 27.78° C 45% 996.1 hPa 0 mm 0 m/s - -

* Rain latest hour (hover to see other rain measurements)
** Current wind speed in m/s (hover to see current wind gust speed)